createdAt,value
2018-02-15T00:01:41.434Z,69.14
2018-02-15T00:04:09.818Z,69.96
2018-02-15T00:06:38.230Z,70.40
2018-02-15T00:09:07.014Z,70.05
2018-02-15T00:11:35.887Z,68.96
2018-02-15T00:14:04.255Z,68.71
2018-02-15T00:16:32.632Z,69.10
2018-02-15T00:19:01.019Z,67.42
2018-02-15T00:21:29.389Z,67.31
2018-02-15T00:23:57.829Z,67.94
2018-02-15T00:26:26.211Z,67.74
2018-02-15T00:28:54.563Z,67.54
2018-02-15T00:31:23.478Z,68.23
2018-02-15T00:33:51.852Z,68.53
2018-02-15T00:36:20.228Z,67.67
2018-02-15T00:38:48.599Z,69.51
2018-02-15T00:41:16.988Z,68.97
2018-02-15T00:43:45.371Z,68.68
2018-02-15T00:46:13.731Z,68.08
2018-02-15T00:48:42.508Z,67.70
2018-02-15T00:51:11.283Z,68.05
2018-02-15T00:53:39.685Z,68.97
2018-02-15T00:56:08.447Z,68.30
2018-02-15T00:58:36.847Z,68.47
2018-02-15T01:01:05.706Z,68.31
2018-02-15T01:03:34.066Z,68.05
2018-02-15T01:06:02.960Z,67.58
2018-02-15T01:08:31.331Z,67.11
2018-02-15T01:10:59.998Z,68.17
2018-02-15T01:13:28.391Z,67.98
2018-02-15T01:15:56.743Z,66.80
2018-02-15T01:18:25.106Z,66.97
2018-02-15T01:20:53.960Z,67.71
2018-02-15T01:23:22.437Z,67.93
2018-02-15T01:25:50.844Z,66.91
2018-02-15T01:28:19.609Z,66.77
2018-02-15T01:30:48.077Z,66.20
2018-02-15T01:33:17.117Z,66.96
2018-02-15T01:35:45.944Z,66.99
2018-02-15T01:38:14.336Z,67.07
2018-02-15T01:40:42.688Z,68.40
2018-02-15T01:43:11.095Z,67.43
2018-02-15T01:45:39.484Z,66.17
2018-02-15T01:48:07.933Z,66.02
2018-02-15T01:50:36.293Z,64.89
2018-02-15T01:53:04.656Z,65.20
2018-02-15T01:55:33.495Z,65.58
2018-02-15T01:58:01.904Z,64.99
2018-02-15T02:00:30.314Z,65.52
2018-02-15T02:02:58.688Z,64.98
2018-02-15T02:05:27.546Z,65.78
2018-02-15T02:07:55.951Z,66.10
2018-02-15T02:10:24.729Z,66.36
2018-02-15T02:12:53.119Z,67.20
2018-02-15T02:15:21.948Z,67.84
2018-02-15T02:17:50.312Z,65.50
2018-02-15T02:20:18.735Z,66.46
2018-02-15T02:22:47.108Z,66.33
2018-02-15T02:25:15.502Z,66.49
2018-02-15T02:27:44.010Z,67.04
2018-02-15T02:30:12.366Z,66.06
2018-02-15T02:32:40.724Z,65.72
2018-02-15T02:35:09.107Z,66.18
2018-02-15T02:37:37.522Z,66.51
2018-02-15T02:40:06.284Z,66.21
2018-02-15T02:42:34.649Z,65.61
2018-02-15T02:45:03.026Z,66.05
2018-02-15T02:47:31.412Z,66.01
2018-02-15T02:49:59.815Z,66.74
2018-02-15T02:52:28.192Z,67.26
2018-02-15T02:54:56.553Z,65.86
2018-02-15T02:57:24.924Z,65.69
2018-02-15T02:59:53.281Z,65.91
2018-02-15T03:02:21.660Z,66.09
2018-02-15T03:04:50.015Z,66.26
2018-02-15T03:07:18.365Z,66.22
2018-02-15T03:09:46.731Z,65.76
2018-02-15T03:12:15.111Z,64.63
2018-02-15T03:14:43.529Z,66.02
2018-02-15T03:17:12.022Z,65.72
2018-02-15T03:19:40.384Z,66.79
2018-02-15T03:22:09.150Z,65.41
2018-02-15T03:24:37.585Z,64.60
2018-02-15T03:27:06.007Z,65.50
2018-02-15T03:29:34.363Z,67.54
2018-02-15T03:32:02.789Z,67.09
2018-02-15T03:34:31.615Z,66.50
2018-02-15T03:36:59.977Z,67.05
2018-02-15T03:39:28.360Z,66.35
2018-02-15T03:41:56.729Z,66.01
2018-02-15T03:44:25.147Z,64.79
2018-02-15T03:46:53.626Z,64.66
2018-02-15T03:49:22.081Z,66.88
2018-02-15T03:51:50.456Z,65.66
2018-02-15T03:54:18.846Z,65.02
2018-02-15T03:56:47.213Z,64.26
2018-02-15T03:59:15.618Z,64.10
2018-02-15T04:01:44.012Z,64.63
2018-02-15T04:04:12.385Z,65.55
2018-02-15T04:06:40.747Z,65.53
2018-02-15T04:09:09.238Z,66.58
2018-02-15T04:11:38.394Z,65.35
2018-02-15T04:14:06.807Z,66.11
2018-02-15T04:16:35.170Z,68.16
2018-02-15T04:19:04.283Z,66.86
2018-02-15T04:21:32.653Z,65.88
2018-02-15T04:24:01.003Z,65.42
2018-02-15T04:26:29.365Z,64.05
2018-02-15T04:28:58.116Z,64.37
2018-02-15T04:31:26.486Z,65.01
2018-02-15T04:33:54.922Z,65.77
2018-02-15T04:36:23.699Z,65.06
2018-02-15T04:38:52.439Z,65.39
2018-02-15T04:41:20.787Z,66.63
2018-02-15T04:43:49.162Z,66.20
2018-02-15T04:46:17.517Z,66.14
2018-02-15T04:48:46.288Z,65.65
2018-02-15T04:51:14.635Z,66.84
2018-02-15T04:53:43.129Z,66.32
2018-02-15T04:56:11.512Z,65.90
2018-02-15T04:58:39.873Z,64.80
2018-02-15T05:01:08.269Z,65.63
2018-02-15T05:03:36.619Z,65.08
2018-02-15T05:06:05.029Z,64.81
2018-02-15T05:08:33.393Z,64.69
2018-02-15T05:11:01.745Z,63.99
2018-02-15T05:13:30.110Z,63.26
2018-02-15T05:15:58.863Z,63.98
2018-02-15T05:18:27.244Z,64.07
2018-02-15T05:20:55.599Z,64.26
2018-02-15T05:23:23.959Z,63.22
2018-02-15T05:25:52.317Z,64.78
2018-02-15T05:28:20.742Z,65.30
2018-02-15T05:30:49.123Z,63.68
2018-02-15T05:33:17.595Z,63.01
2018-02-15T05:35:45.976Z,63.27
2018-02-15T05:38:14.660Z,63.85
2018-02-15T05:40:43.152Z,64.38
2018-02-15T05:43:11.499Z,64.21
2018-02-15T05:45:39.905Z,62.86
2018-02-15T05:48:08.274Z,64.49
2018-02-15T05:50:36.622Z,67.04
2018-02-15T05:53:04.991Z,65.68
2018-02-15T05:55:34.239Z,64.68
2018-02-15T05:58:02.710Z,65.11
2018-02-15T06:00:31.355Z,66.31
2018-02-15T06:02:59.712Z,65.88
2018-02-15T06:05:28.168Z,65.68
2018-02-15T06:07:56.542Z,66.55
2018-02-15T06:10:26.785Z,67.77
2018-02-15T06:12:57.609Z,67.68
2018-02-15T06:15:26.948Z,67.55
2018-02-15T06:17:55.826Z,67.31
2018-02-15T06:20:24.711Z,65.77
2018-02-15T06:22:55.625Z,65.04
2018-02-15T06:25:25.573Z,65.22
2018-02-15T06:27:55.675Z,65.36
2018-02-15T06:30:24.351Z,66.42
2018-02-15T06:32:55.725Z,65.42
2018-02-15T06:35:27.243Z,65.88
2018-02-15T06:37:57.629Z,66.15
2018-02-15T06:40:27.369Z,66.38
2018-02-15T06:42:55.752Z,67.24
2018-02-15T06:45:25.846Z,66.58
2018-02-15T06:47:54.195Z,65.16
2018-02-15T06:50:24.441Z,64.48
2018-02-15T06:52:55.733Z,64.55
2018-02-15T06:55:27.043Z,65.32
2018-02-15T06:57:57.418Z,65.03
2018-02-15T07:00:28.521Z,67.30
2018-02-15T07:02:59.714Z,68.78
2018-02-15T07:05:30.299Z,68.48
2018-02-15T07:08:01.168Z,68.57
2018-02-15T07:10:31.638Z,69.63
2018-02-15T07:13:02.039Z,69.23
2018-02-15T07:15:33.255Z,68.89
2018-02-15T07:18:04.130Z,67.10
2018-02-15T07:20:35.428Z,66.49
2018-02-15T07:23:06.303Z,66.49
2018-02-15T07:25:36.859Z,65.93
2018-02-15T07:28:07.695Z,65.07
2018-02-15T07:30:38.629Z,65.16
2018-02-15T07:33:09.120Z,64.32
2018-02-15T07:35:40.296Z,64.41
2018-02-15T07:38:09.142Z,64.60
2018-02-15T07:40:37.488Z,64.66
2018-02-15T07:43:05.839Z,64.59
2018-02-15T07:45:34.592Z,63.62
2018-02-15T07:48:02.989Z,65.68
2018-02-15T07:50:31.344Z,64.93
2018-02-15T07:52:59.710Z,65.17
2018-02-15T07:55:28.064Z,65.40
2018-02-15T07:57:56.530Z,64.85
2018-02-15T08:00:24.898Z,64.65
2018-02-15T08:02:53.644Z,63.21
2018-02-15T08:05:21.999Z,62.27
2018-02-15T08:07:50.367Z,63.13
2018-02-15T08:10:18.881Z,63.32
2018-02-15T08:12:47.377Z,62.30
2018-02-15T08:15:15.741Z,62.35
2018-02-15T08:17:44.221Z,63.37
2018-02-15T08:20:12.603Z,63.65
2018-02-15T08:22:40.986Z,62.33
2018-02-15T08:25:09.336Z,61.78
2018-02-15T08:27:37.692Z,60.81
2018-02-15T08:30:06.475Z,61.49
2018-02-15T08:32:35.333Z,61.79
2018-02-15T08:35:03.706Z,60.16
2018-02-15T08:37:32.095Z,60.79
2018-02-15T08:40:00.449Z,60.59
2018-02-15T08:42:29.557Z,61.19
2018-02-15T08:44:57.902Z,60.22
2018-02-15T08:47:26.310Z,60.53
2018-02-15T08:49:54.656Z,59.99
2018-02-15T08:52:23.008Z,59.13
2018-02-15T08:54:51.756Z,59.28
2018-02-15T08:57:20.123Z,57.60
2018-02-15T08:59:48.500Z,56.73
2018-02-15T09:02:16.863Z,57.68
2018-02-15T09:04:45.227Z,57.50
2018-02-15T09:07:13.596Z,56.76
2018-02-15T09:09:42.346Z,53.94
2018-02-15T09:12:11.045Z,54.13
2018-02-15T09:14:39.491Z,53.77
2018-02-15T09:17:07.852Z,53.26
2018-02-15T09:19:36.204Z,52.30
2018-02-15T09:22:05.040Z,52.17
2018-02-15T09:24:33.387Z,51.57
2018-02-15T09:27:01.772Z,49.59
2018-02-15T09:29:31.040Z,49.53
2018-02-15T09:31:59.787Z,49.30
2018-02-15T09:34:28.159Z,48.84
2018-02-15T09:36:56.556Z,48.08
2018-02-15T09:39:24.907Z,46.04
2018-02-15T09:41:53.260Z,46.59
2018-02-15T09:44:21.617Z,46.19
2018-02-15T09:46:50.060Z,44.31
2018-02-15T09:49:18.445Z,41.55
2018-02-15T09:51:46.818Z,40.24
2018-02-15T09:54:15.185Z,40.69
2018-02-15T09:56:43.535Z,41.67
2018-02-15T09:59:11.887Z,40.38
2018-02-15T10:01:40.332Z,40.94
2018-02-15T10:04:08.686Z,42.12
2018-02-15T10:06:37.027Z,42.02
2018-02-15T10:09:05.783Z,40.52
2018-02-15T10:11:34.161Z,41.00
2018-02-15T10:14:02.642Z,41.55
2018-02-15T10:16:31.011Z,41.03
2018-02-15T10:18:59.361Z,41.07
2018-02-15T10:21:27.769Z,39.78
2018-02-15T10:23:56.164Z,41.46
2018-02-15T10:26:24.640Z,41.03
2018-02-15T10:28:52.984Z,41.99
2018-02-15T10:31:21.336Z,43.45
2018-02-15T10:33:50.175Z,42.68
2018-02-15T10:36:18.523Z,41.87
2018-02-15T10:38:46.913Z,42.06
2018-02-15T10:41:15.268Z,42.17
2018-02-15T10:43:43.709Z,41.39
2018-02-15T10:46:12.053Z,42.35
2018-02-15T10:48:40.403Z,42.21
2018-02-15T10:51:09.248Z,42.17
2018-02-15T10:53:37.608Z,42.29
2018-02-15T10:56:05.964Z,43.05
2018-02-15T10:58:34.308Z,42.57
2018-02-15T11:01:08.259Z,42.75
2018-02-15T11:03:36.600Z,43.28
2018-02-15T11:06:04.947Z,44.50
2018-02-15T11:08:33.320Z,45.28
2018-02-15T11:11:01.704Z,45.54
2018-02-15T11:13:30.113Z,45.82
2018-02-15T11:15:58.600Z,45.78
2018-02-15T11:18:27.454Z,44.61
2018-02-15T11:20:55.827Z,44.36
2018-02-15T11:23:24.166Z,45.17
2018-02-15T11:25:53.000Z,47.04
2018-02-15T11:28:21.368Z,47.10
2018-02-15T11:30:49.787Z,46.91
2018-02-15T11:33:18.138Z,47.94
2018-02-15T11:35:46.515Z,48.64
2018-02-15T11:38:14.864Z,50.03
2018-02-15T11:40:43.219Z,49.74
2018-02-15T11:43:11.958Z,49.31
2018-02-15T11:45:40.331Z,48.73
2018-02-15T11:48:08.675Z,49.30
2018-02-15T11:50:37.040Z,49.60
2018-02-15T11:53:05.804Z,48.25
2018-02-15T11:55:34.287Z,46.57
2018-02-15T11:58:02.632Z,46.26
2018-02-15T12:00:30.984Z,47.61
2018-02-15T12:02:59.396Z,47.97
2018-02-15T12:05:27.756Z,48.09
2018-02-15T12:07:56.091Z,48.00
2018-02-15T12:10:24.505Z,49.23
2018-02-15T12:12:52.855Z,49.13
2018-02-15T12:15:21.701Z,48.68
2018-02-15T12:17:50.611Z,49.29
2018-02-15T12:20:19.377Z,47.98
2018-02-15T12:22:47.732Z,47.76
2018-02-15T12:25:16.077Z,47.02
2018-02-15T12:27:44.921Z,48.05
2018-02-15T12:30:13.300Z,48.82
2018-02-15T12:32:41.674Z,48.38
2018-02-15T12:35:10.068Z,48.73
2018-02-15T12:37:38.486Z,48.18
2018-02-15T12:40:07.323Z,49.03
2018-02-15T12:42:35.701Z,47.73
2018-02-15T12:45:04.068Z,47.65
2018-02-15T12:47:32.412Z,47.28
2018-02-15T12:50:01.163Z,46.48
2018-02-15T12:52:29.539Z,46.63
2018-02-15T12:54:57.928Z,47.29
2018-02-15T12:57:26.288Z,48.79
2018-02-15T12:59:54.636Z,48.67
2018-02-15T13:02:22.995Z,48.86
2018-02-15T13:04:51.738Z,48.94
2018-02-15T13:07:20.115Z,49.00
2018-02-15T13:09:48.488Z,47.49
2018-02-15T13:12:34.783Z,47.67
2018-02-15T13:15:03.167Z,47.64
2018-02-15T13:17:31.516Z,46.78
2018-02-15T13:20:17.816Z,47.91
2018-02-15T13:22:48.868Z,47.88
2018-02-15T13:25:17.261Z,47.69
2018-02-15T13:28:03.512Z,46.83
2018-02-15T13:30:32.347Z,47.19
2018-02-15T13:33:00.695Z,46.45
2018-02-15T13:35:29.035Z,46.45
2018-02-15T13:37:57.400Z,46.07
2018-02-15T13:40:25.791Z,45.56
2018-02-15T13:42:54.136Z,46.79
2018-02-15T13:45:22.497Z,46.22
2018-02-15T13:47:51.001Z,46.49
2018-02-15T13:50:19.392Z,47.38
2018-02-15T13:52:47.856Z,47.12
2018-02-15T13:55:16.207Z,46.54
2018-02-15T13:57:44.589Z,47.00
2018-02-15T14:00:13.000Z,47.07
2018-02-15T14:02:41.387Z,47.40
2018-02-15T14:05:09.746Z,48.10
2018-02-15T14:07:38.094Z,48.72
2018-02-15T14:10:06.865Z,48.85
2018-02-15T14:12:35.214Z,49.06
2018-02-15T14:15:03.582Z,48.50
2018-02-15T14:17:31.991Z,47.15
2018-02-15T14:20:00.351Z,47.58
2018-02-15T14:22:28.715Z,46.48
2018-02-15T14:24:57.067Z,47.09
2018-02-15T14:27:25.537Z,48.01
2018-02-15T14:29:54.283Z,47.98
2018-02-15T14:32:22.651Z,48.00
2018-02-15T14:34:51.103Z,48.87
2018-02-15T14:37:19.499Z,49.30
2018-02-15T14:39:47.865Z,48.19
2018-02-15T14:42:16.236Z,48.10
2018-02-15T14:44:44.581Z,46.19
2018-02-15T14:47:13.422Z,45.76
2018-02-15T14:49:41.811Z,44.29
2018-02-15T14:52:10.187Z,44.47
2018-02-15T14:54:38.550Z,44.60
2018-02-15T14:57:07.026Z,43.81
2018-02-15T14:59:35.379Z,43.69
2018-02-15T15:02:04.270Z,44.75
2018-02-15T15:04:33.080Z,44.77
2018-02-15T15:07:01.484Z,43.15
2018-02-15T15:09:30.183Z,43.28
2018-02-15T15:11:58.647Z,43.90
2018-02-15T15:14:27.010Z,43.73
2018-02-15T15:16:55.390Z,44.45
2018-02-15T15:19:23.764Z,43.92
2018-02-15T15:21:52.107Z,42.95
2018-02-15T15:24:20.871Z,43.92
2018-02-15T15:26:49.229Z,43.58
2018-02-15T15:29:17.626Z,43.71
2018-02-15T15:31:45.983Z,43.44
2018-02-15T15:34:14.331Z,42.85
2018-02-15T15:36:42.683Z,42.17
2018-02-15T15:39:11.168Z,42.26
2018-02-15T15:41:39.920Z,42.71
2018-02-15T15:44:08.287Z,42.70
2018-02-15T15:46:38.316Z,43.44
2018-02-15T15:49:06.704Z,44.02
2018-02-15T15:51:35.179Z,42.79
2018-02-15T15:54:03.542Z,42.60
2018-02-15T15:56:31.888Z,41.83
2018-02-15T15:59:00.316Z,42.12
2018-02-15T16:01:28.667Z,42.48
2018-02-15T16:03:57.063Z,43.41
2018-02-15T16:06:25.488Z,42.85
2018-02-15T16:08:53.919Z,42.39
2018-02-15T16:11:22.308Z,42.15
2018-02-15T16:13:50.647Z,41.92
2018-02-15T16:16:19.010Z,41.52
2018-02-15T16:18:53.478Z,42.60
2018-02-15T16:21:21.837Z,41.72
2018-02-15T16:23:50.241Z,41.74
2018-02-15T16:26:18.591Z,41.85
2018-02-15T16:28:46.941Z,42.29
2018-02-15T16:31:15.814Z,41.78
2018-02-15T16:33:44.175Z,41.94
2018-02-15T16:36:12.545Z,41.95
2018-02-15T16:38:40.911Z,42.45
2018-02-15T16:41:09.260Z,42.03
2018-02-15T16:43:37.675Z,42.72
2018-02-15T16:46:06.016Z,42.36
2018-02-15T16:48:34.453Z,42.68
2018-02-15T16:51:02.819Z,42.51
2018-02-15T16:53:31.315Z,43.69
2018-02-15T16:55:59.684Z,44.16
2018-02-15T16:58:28.062Z,43.90
2018-02-15T17:00:56.423Z,43.08
2018-02-15T17:03:24.783Z,43.25
2018-02-15T17:05:53.135Z,43.53
2018-02-15T17:08:21.504Z,43.07
2018-02-15T17:10:50.247Z,43.49
2018-02-15T17:13:18.609Z,43.32
2018-02-15T17:15:47.013Z,42.93
2018-02-15T17:18:15.485Z,42.50
2018-02-15T17:20:43.847Z,43.06
2018-02-15T17:23:12.280Z,42.54
2018-02-15T17:25:40.632Z,42.02
2018-02-15T17:28:08.990Z,42.20
2018-02-15T17:30:37.339Z,42.10
2018-02-15T17:33:05.791Z,42.37
2018-02-15T17:35:34.133Z,41.76
2018-02-15T17:38:02.506Z,41.81
2018-02-15T17:40:30.856Z,41.91
2018-02-15T17:42:59.600Z,43.25
2018-02-15T17:45:27.968Z,43.98
2018-02-15T17:47:56.331Z,43.42
2018-02-15T17:50:24.679Z,43.09
2018-02-15T17:52:53.427Z,43.86
2018-02-15T17:55:27.592Z,44.90
2018-02-15T17:57:56.290Z,45.51
2018-02-15T18:00:24.674Z,45.85
2018-02-15T18:02:53.054Z,46.67
2018-02-15T18:05:21.449Z,47.07
2018-02-15T18:07:49.800Z,47.59
2018-02-15T18:10:18.207Z,48.17
2018-02-15T18:12:46.555Z,47.75
2018-02-15T18:15:15.059Z,48.94
2018-02-15T18:17:43.407Z,49.72
2018-02-15T18:20:11.901Z,49.26
2018-02-15T18:22:40.299Z,48.08
2018-02-15T18:25:08.675Z,48.70
2018-02-15T18:27:37.044Z,47.15
2018-02-15T18:30:05.415Z,47.04
2018-02-15T18:32:33.822Z,47.68
2018-02-15T18:35:02.197Z,48.79
2018-02-15T18:37:30.550Z,48.81
2018-02-15T18:39:58.953Z,48.21
2018-02-15T18:42:27.329Z,48.65
2018-02-15T18:44:55.685Z,48.26
2018-02-15T18:47:26.800Z,47.68
2018-02-15T18:49:57.481Z,47.55
2018-02-15T18:52:26.228Z,47.56
2018-02-15T18:54:56.666Z,47.67
2018-02-15T18:57:25.691Z,47.55
2018-02-15T18:59:57.139Z,48.80
2018-02-15T19:02:28.186Z,48.37
2018-02-15T19:04:56.545Z,49.00
2018-02-15T19:07:25.389Z,50.65
2018-02-15T19:09:56.309Z,50.39
2018-02-15T19:12:26.695Z,50.92
2018-02-15T19:14:56.652Z,50.37
2018-02-15T19:17:25.370Z,51.57
2018-02-15T19:19:55.303Z,51.48
2018-02-15T19:22:24.651Z,51.87
2018-02-15T19:24:55.625Z,53.38
2018-02-15T19:27:26.431Z,53.04
2018-02-15T19:29:57.305Z,53.30
2018-02-15T19:32:28.542Z,52.68
2018-02-15T19:34:57.392Z,51.64
2018-02-15T19:37:25.779Z,51.00
2018-02-15T19:39:54.225Z,50.36
2018-02-15T19:42:22.630Z,50.87
2018-02-15T19:44:51.115Z,52.38
2018-02-15T19:47:19.459Z,52.51
2018-02-15T19:49:48.067Z,52.98
2018-02-15T19:52:16.443Z,53.40
2018-02-15T19:54:44.920Z,52.75
2018-02-15T19:57:13.320Z,51.54
2018-02-15T19:59:41.869Z,50.97
2018-02-15T20:02:10.264Z,51.62
2018-02-15T20:04:38.638Z,51.04
2018-02-15T20:07:07.114Z,51.21
2018-02-15T20:09:35.504Z,51.47
2018-02-15T20:12:03.982Z,51.25
2018-02-15T20:14:32.322Z,51.35
2018-02-15T20:17:01.173Z,50.88
2018-02-15T20:19:29.536Z,50.81
2018-02-15T20:21:57.898Z,51.29
2018-02-15T20:24:26.300Z,50.92
2018-02-15T20:27:00.099Z,50.85
2018-02-15T20:29:28.479Z,51.83
2018-02-15T20:31:56.861Z,51.76
2018-02-15T20:34:25.325Z,52.26
2018-02-15T20:36:53.673Z,53.51
2018-02-15T20:39:27.909Z,55.75
2018-02-15T20:41:56.385Z,58.90
2018-02-15T20:44:24.726Z,59.43
2018-02-15T20:46:53.105Z,59.60
2018-02-15T20:49:27.010Z,60.30
2018-02-15T20:52:01.184Z,61.20
2018-02-15T20:54:35.112Z,62.28
2018-02-15T20:57:03.553Z,62.75
2018-02-15T20:59:31.956Z,62.37
2018-02-15T21:02:00.321Z,62.41
2018-02-15T21:04:28.894Z,61.93
2018-02-15T21:06:57.244Z,61.71
2018-02-15T21:09:26.097Z,61.35
2018-02-15T21:11:54.893Z,61.36
2018-02-15T21:14:23.259Z,61.60
2018-02-15T21:16:51.678Z,62.71
2018-02-15T21:19:20.023Z,61.33
2018-02-15T21:21:48.809Z,61.98
2018-02-15T21:24:17.143Z,61.76
2018-02-15T21:26:45.974Z,61.75
2018-02-15T21:29:14.676Z,62.20
2018-02-15T21:31:43.149Z,63.11
2018-02-15T21:34:13.429Z,63.05
2018-02-15T21:36:44.627Z,62.96
2018-02-15T21:39:14.347Z,63.22
2018-02-15T21:41:43.262Z,64.09
2018-02-15T21:44:12.267Z,63.89
2018-02-15T21:46:42.929Z,63.57
2018-02-15T21:49:12.293Z,63.73
2018-02-15T21:51:42.807Z,63.15
2018-02-15T21:54:13.511Z,63.89
2018-02-15T21:56:41.905Z,63.58
2018-02-15T21:59:10.368Z,62.62
2018-02-15T22:01:38.846Z,62.89
2018-02-15T22:04:07.257Z,61.77
2018-02-15T22:06:38.031Z,61.47
2018-02-15T22:09:06.764Z,62.23
2018-02-15T22:11:37.685Z,62.35
2018-02-15T22:14:06.088Z,61.65
2018-02-15T22:16:34.416Z,61.84
2018-02-15T22:19:02.849Z,62.51
2018-02-15T22:21:31.645Z,63.29
2018-02-15T22:24:00.417Z,64.37
2018-02-15T22:26:29.211Z,63.55
2018-02-15T22:28:58.539Z,64.25
2018-02-15T22:31:27.757Z,64.05
2018-02-15T22:33:56.121Z,64.34
2018-02-15T22:36:24.956Z,63.43
2018-02-15T22:38:53.324Z,62.90
2018-02-15T22:41:21.689Z,63.50
2018-02-15T22:43:50.041Z,63.97
2018-02-15T22:46:18.887Z,63.17
2018-02-15T22:48:47.234Z,62.77
2018-02-15T22:51:15.592Z,62.69
2018-02-15T22:53:44.435Z,62.59
2018-02-15T22:56:12.786Z,62.89
2018-02-15T22:58:41.179Z,63.08
2018-02-15T23:01:09.535Z,64.44
2018-02-15T23:03:37.899Z,64.40
2018-02-15T23:06:06.732Z,64.00
2018-02-15T23:08:35.115Z,63.17
2018-02-15T23:11:03.488Z,62.29
2018-02-15T23:13:31.858Z,62.53
2018-02-15T23:16:00.211Z,62.87
2018-02-15T23:18:28.563Z,62.57
2018-02-15T23:20:57.920Z,62.25
2018-02-15T23:23:26.267Z,62.32
2018-02-15T23:25:54.621Z,62.52
2018-02-15T23:28:23.477Z,62.27
2018-02-15T23:30:51.955Z,61.74
2018-02-15T23:33:20.329Z,62.25
2018-02-15T23:35:48.672Z,61.54
2018-02-15T23:38:17.029Z,61.71
2018-02-15T23:40:45.886Z,61.38
2018-02-15T23:43:14.263Z,61.52
2018-02-15T23:45:42.601Z,60.55
2018-02-15T23:48:10.965Z,60.65
2018-02-15T23:50:39.707Z,60.04
2018-02-15T23:53:08.072Z,60.38
2018-02-15T23:55:36.458Z,59.85
2018-02-15T23:58:04.853Z,60.13
